createdAt,value
2019-03-10T00:03:08.849Z,2.03
2019-03-10T00:13:19.653Z,1.43
2019-03-10T00:23:33.845Z,2.43
2019-03-10T00:33:52.010Z,2.00
2019-03-10T00:44:09.442Z,1.60
2019-03-10T00:54:22.223Z,1.00
2019-03-10T01:04:34.905Z,1.20
2019-03-10T01:14:47.262Z,0.90
2019-03-10T01:25:09.515Z,1.43
2019-03-10T01:35:28.789Z,1.33
2019-03-10T01:45:39.041Z,1.03
2019-03-10T01:55:51.338Z,1.67
2019-03-10T02:05:59.453Z,1.07
2019-03-10T02:16:25.105Z,1.30
2019-03-10T02:26:36.694Z,1.90
2019-03-10T02:36:49.369Z,1.50
2019-03-10T02:47:05.853Z,1.60
2019-03-10T02:57:19.535Z,1.30
2019-03-10T03:07:27.959Z,2.80
2019-03-10T03:17:42.881Z,2.10
2019-03-10T03:27:51.112Z,2.73
2019-03-10T03:38:08.350Z,2.90
2019-03-10T03:48:19.771Z,3.07
2019-03-10T03:58:29.385Z,2.00
2019-03-10T04:08:42.975Z,2.90
2019-03-10T04:19:01.922Z,3.00
2019-03-10T04:29:22.502Z,2.50
2019-03-10T04:39:33.473Z,3.10
2019-03-10T04:49:49.632Z,3.63
2019-03-10T05:10:33.889Z,4.50
2019-03-10T05:20:45.564Z,2.53
2019-03-10T05:30:52.704Z,2.07
2019-03-10T05:41:04.898Z,2.83
2019-03-10T05:51:11.080Z,3.90
2019-03-10T06:01:18.491Z,4.23
2019-03-10T06:11:27.018Z,4.80
2019-03-10T06:21:48.331Z,4.53
2019-03-10T06:31:55.462Z,7.07
2019-03-10T06:42:12.163Z,2.87
2019-03-10T06:52:21.434Z,3.33
2019-03-10T07:02:31.653Z,4.07
2019-03-10T07:12:46.493Z,4.30
2019-03-10T07:23:00.500Z,5.00
2019-03-10T07:33:26.787Z,4.37
2019-03-10T07:43:40.644Z,3.97
2019-03-10T07:53:53.967Z,4.00
2019-03-10T08:04:11.544Z,4.10
2019-03-10T08:14:37.777Z,4.63
2019-03-10T08:25:14.706Z,4.50
2019-03-10T08:35:57.407Z,4.40
2019-03-10T08:46:33.298Z,5.10
2019-03-10T08:57:11.956Z,5.17
2019-03-10T09:07:45.442Z,3.77
2019-03-10T09:18:11.592Z,4.70
2019-03-10T09:28:37.966Z,4.77
2019-03-10T09:39:15.572Z,4.87
2019-03-10T09:49:55.573Z,4.80
2019-03-10T10:00:32.608Z,5.30
2019-03-10T10:10:52.240Z,5.27
2019-03-10T10:21:29.157Z,5.40
2019-03-10T10:31:42.162Z,5.77
2019-03-10T10:41:49.452Z,5.57
2019-03-10T10:51:59.724Z,7.43
2019-03-10T11:02:06.998Z,6.70
2019-03-10T11:12:17.278Z,8.20
2019-03-10T11:22:30.121Z,9.37
2019-03-10T11:32:44.690Z,6.97
2019-03-10T11:42:52.014Z,6.63
2019-03-10T11:53:19.235Z,6.90
2019-03-10T12:03:20.558Z,6.90
2019-03-10T12:13:26.070Z,9.87
2019-03-10T12:23:31.682Z,7.13
2019-03-10T12:33:37.445Z,7.60
2019-03-10T12:43:43.985Z,7.13
2019-03-10T12:53:51.180Z,7.90
2019-03-10T13:03:59.054Z,7.00
2019-03-10T13:14:05.400Z,6.87
2019-03-10T13:24:11.207Z,7.93
2019-03-10T13:34:17.081Z,9.13
2019-03-10T13:44:24.669Z,8.07
2019-03-10T13:54:38.446Z,14.10
2019-03-10T14:04:44.769Z,11.90
2019-03-10T14:14:50.510Z,5.90
2019-03-10T14:25:09.838Z,4.67
2019-03-10T14:35:18.153Z,6.03
2019-03-10T14:45:23.802Z,5.03
2019-03-10T14:55:29.609Z,6.70
2019-03-10T15:05:35.434Z,5.73
2019-03-10T15:15:41.032Z,5.10
2019-03-10T15:25:46.748Z,3.43
2019-03-10T15:35:52.457Z,2.90
2019-03-10T15:45:58.086Z,3.47
2019-03-10T15:56:03.994Z,3.80
2019-03-10T16:06:09.835Z,3.47
2019-03-10T16:16:15.873Z,4.23
2019-03-10T16:26:21.593Z,3.50
2019-03-10T16:36:27.664Z,4.77
2019-03-10T16:46:33.536Z,5.40
2019-03-10T16:56:39.689Z,7.00
2019-03-10T17:06:51.773Z,7.70
2019-03-10T17:16:59.569Z,6.80
2019-03-10T17:27:05.451Z,9.73
2019-03-10T17:37:11.370Z,7.73
2019-03-10T17:47:17.293Z,10.00
2019-03-10T17:57:23.147Z,10.73
2019-03-10T18:07:29.169Z,10.40
2019-03-10T18:17:34.979Z,9.53
2019-03-10T18:27:42.129Z,9.80
2019-03-10T18:37:48.107Z,9.50
2019-03-10T18:47:54.036Z,9.70
2019-03-10T18:58:00.130Z,10.03
2019-03-10T19:08:05.969Z,8.40
2019-03-10T19:18:11.800Z,4.93
2019-03-10T19:28:17.804Z,5.20
2019-03-10T19:38:24.556Z,4.50
2019-03-10T19:48:30.251Z,4.90
2019-03-10T19:58:36.419Z,4.50
2019-03-10T20:08:43.638Z,6.93
2019-03-10T20:18:49.387Z,7.50
2019-03-10T20:29:06.910Z,7.73
2019-03-10T20:39:21.690Z,13.93
2019-03-10T20:49:27.618Z,9.20
2019-03-10T20:59:33.219Z,5.00
2019-03-10T21:09:40.260Z,7.90
2019-03-10T21:19:46.095Z,9.50
2019-03-10T21:29:51.817Z,7.37
2019-03-10T21:39:57.503Z,7.47
2019-03-10T21:50:03.339Z,5.80
2019-03-10T22:00:20.348Z,6.53
2019-03-10T22:10:27.957Z,4.30
2019-03-10T22:20:32.929Z,3.60
2019-03-10T22:30:38.369Z,6.00
2019-03-10T22:40:44.021Z,3.30
2019-03-10T22:50:49.547Z,3.03
2019-03-10T23:00:57.209Z,3.07
2019-03-10T23:11:02.862Z,1.67
2019-03-10T23:21:08.513Z,2.13
2019-03-10T23:31:13.953Z,1.83
2019-03-10T23:41:19.400Z,1.57
2019-03-10T23:51:24.959Z,1.67
